sensor_id;sensor_type;location;lat;lon;timestamp;P1;durP1;ratioP1;P2;durP2;ratioP2
27517;SDS011;14962;52.482;13.142;2024-02-26T00:01:41;7.18;;;3.28;;
27517;SDS011;14962;52.482;13.142;2024-02-26T00:04:08;8.60;;;3.22;;
27517;SDS011;14962;52.482;13.142;2024-02-26T00:06:35;6.47;;;3.05;;
27517;SDS011;14962;52.482;13.142;2024-02-26T00:09:01;4.25;;;2.90;;
27517;SDS011;14962;52.482;13.142;2024-02-26T00:11:30;5.43;;;3.55;;
27517;SDS011;14962;52.482;13.142;2024-02-26T00:13:56;7.10;;;2.70;;
27517;SDS011;14962;52.482;13.142;2024-02-26T00:16:23;8.13;;;3.30;;
27517;SDS011;14962;52.482;13.142;2024-02-26T00:18:49;6.32;;;2.88;;
27517;SDS011;14962;52.482;13.142;2024-02-26T00:21:15;5.28;;;3.00;;
27517;SDS011;14962;52.482;13.142;2024-02-26T00:23:41;5.90;;;3.35;;
27517;SDS011;14962;52.482;13.142;2024-02-26T00:26:07;7.45;;;3.30;;
27517;SDS011;14962;52.482;13.142;2024-02-26T00:28:33;6.60;;;3.33;;
27517;SDS011;14962;52.482;13.142;2024-02-26T00:30:59;4.85;;;2.88;;
27517;SDS011;14962;52.482;13.142;2024-02-26T00:33:25;7.38;;;3.60;;
27517;SDS011;14962;52.482;13.142;2024-02-26T00:35:51;14.77;;;3.90;;
27517;SDS011;14962;52.482;13.142;2024-02-26T00:38:17;5.97;;;3.28;;
27517;SDS011;14962;52.482;13.142;2024-02-26T00:40:43;4.78;;;2.65;;
27517;SDS011;14962;52.482;13.142;2024-02-26T00:43:09;6.18;;;2.78;;
27517;SDS011;14962;52.482;13.142;2024-02-26T00:45:35;5.03;;;2.63;;
27517;SDS011;14962;52.482;13.142;2024-02-26T00:48:00;6.53;;;3.22;;
27517;SDS011;14962;52.482;13.142;2024-02-26T00:50:30;6.68;;;3.40;;
27517;SDS011;14962;52.482;13.142;2024-02-26T00:52:56;5.50;;;3.13;;
27517;SDS011;14962;52.482;13.142;2024-02-26T00:55:22;5.15;;;3.08;;
27517;SDS011;14962;52.482;13.142;2024-02-26T00:57:48;5.63;;;2.78;;
27517;SDS011;14962;52.482;13.142;2024-02-26T01:00:14;3.88;;;2.20;;
27517;SDS011;14962;52.482;13.142;2024-02-26T01:02:40;5.13;;;2.78;;
27517;SDS011;14962;52.482;13.142;2024-02-26T01:05:15;5.57;;;2.60;;
27517;SDS011;14962;52.482;13.142;2024-02-26T01:07:41;8.15;;;3.25;;
27517;SDS011;14962;52.482;13.142;2024-02-26T01:10:07;5.40;;;3.28;;
27517;SDS011;14962;52.482;13.142;2024-02-26T01:12:34;5.03;;;3.35;;
27517;SDS011;14962;52.482;13.142;2024-02-26T01:15:00;4.78;;;2.78;;
27517;SDS011;14962;52.482;13.142;2024-02-26T01:17:27;6.55;;;2.88;;
27517;SDS011;14962;52.482;13.142;2024-02-26T01:19:53;5.15;;;2.97;;
27517;SDS011;14962;52.482;13.142;2024-02-26T01:22:19;7.90;;;3.20;;
27517;SDS011;14962;52.482;13.142;2024-02-26T01:24:46;4.85;;;2.85;;
27517;SDS011;14962;52.482;13.142;2024-02-26T01:27:12;4.97;;;2.65;;
27517;SDS011;14962;52.482;13.142;2024-02-26T01:29:39;5.25;;;2.72;;
27517;SDS011;14962;52.482;13.142;2024-02-26T01:32:05;5.07;;;2.50;;
27517;SDS011;14962;52.482;13.142;2024-02-26T01:34:31;5.53;;;2.80;;
27517;SDS011;14962;52.482;13.142;2024-02-26T01:36:57;3.15;;;2.17;;
27517;SDS011;14962;52.482;13.142;2024-02-26T01:39:23;6.47;;;2.50;;
27517;SDS011;14962;52.482;13.142;2024-02-26T01:41:49;5.78;;;2.60;;
27517;SDS011;14962;52.482;13.142;2024-02-26T01:44:15;5.47;;;2.72;;
27517;SDS011;14962;52.482;13.142;2024-02-26T01:46:41;7.68;;;3.30;;
27517;SDS011;14962;52.482;13.142;2024-02-26T01:49:08;7.30;;;3.15;;
27517;SDS011;14962;52.482;13.142;2024-02-26T01:51:34;6.28;;;3.47;;
27517;SDS011;14962;52.482;13.142;2024-02-26T01:54:01;6.88;;;3.72;;
27517;SDS011;14962;52.482;13.142;2024-02-26T01:56:28;4.93;;;2.80;;
27517;SDS011;14962;52.482;13.142;2024-02-26T01:58:57;8.57;;;3.33;;
27517;SDS011;14962;52.482;13.142;2024-02-26T02:01:25;8.45;;;3.17;;
27517;SDS011;14962;52.482;13.142;2024-02-26T02:03:51;4.90;;;2.67;;
27517;SDS011;14962;52.482;13.142;2024-02-26T02:06:17;5.60;;;3.00;;
27517;SDS011;14962;52.482;13.142;2024-02-26T02:08:43;5.15;;;3.13;;
27517;SDS011;14962;52.482;13.142;2024-02-26T02:11:09;6.32;;;3.17;;
27517;SDS011;14962;52.482;13.142;2024-02-26T02:13:39;5.68;;;3.40;;
27517;SDS011;14962;52.482;13.142;2024-02-26T02:16:05;8.00;;;2.85;;
27517;SDS011;14962;52.482;13.142;2024-02-26T02:18:32;5.82;;;2.90;;
27517;SDS011;14962;52.482;13.142;2024-02-26T02:20:59;6.88;;;3.00;;
27517;SDS011;14962;52.482;13.142;2024-02-26T02:23:25;4.88;;;3.10;;
27517;SDS011;14962;52.482;13.142;2024-02-26T02:25:52;3.55;;;2.80;;
27517;SDS011;14962;52.482;13.142;2024-02-26T02:28:18;7.03;;;3.10;;
27517;SDS011;14962;52.482;13.142;2024-02-26T02:30:44;7.60;;;3.38;;
27517;SDS011;14962;52.482;13.142;2024-02-26T02:33:10;8.30;;;2.80;;
27517;SDS011;14962;52.482;13.142;2024-02-26T02:35:37;4.28;;;2.67;;
27517;SDS011;14962;52.482;13.142;2024-02-26T02:38:03;5.50;;;2.63;;
27517;SDS011;14962;52.482;13.142;2024-02-26T02:40:29;4.55;;;2.80;;
27517;SDS011;14962;52.482;13.142;2024-02-26T02:42:55;4.47;;;2.75;;
27517;SDS011;14962;52.482;13.142;2024-02-26T02:45:21;3.40;;;2.65;;
27517;SDS011;14962;52.482;13.142;2024-02-26T02:47:47;4.25;;;2.47;;
27517;SDS011;14962;52.482;13.142;2024-02-26T02:50:13;5.05;;;3.03;;
27517;SDS011;14962;52.482;13.142;2024-02-26T02:52:39;6.38;;;3.15;;
27517;SDS011;14962;52.482;13.142;2024-02-26T02:55:05;5.05;;;3.05;;
27517;SDS011;14962;52.482;13.142;2024-02-26T02:57:31;3.70;;;2.50;;
27517;SDS011;14962;52.482;13.142;2024-02-26T02:59:58;8.02;;;3.05;;
27517;SDS011;14962;52.482;13.142;2024-02-26T03:02:24;5.78;;;2.63;;
27517;SDS011;14962;52.482;13.142;2024-02-26T03:04:50;5.60;;;2.78;;
27517;SDS011;14962;52.482;13.142;2024-02-26T03:07:16;4.70;;;2.92;;
27517;SDS011;14962;52.482;13.142;2024-02-26T03:09:42;4.88;;;2.80;;
27517;SDS011;14962;52.482;13.142;2024-02-26T03:12:08;8.65;;;3.28;;
27517;SDS011;14962;52.482;13.142;2024-02-26T03:14:34;6.18;;;3.10;;
27517;SDS011;14962;52.482;13.142;2024-02-26T03:17:00;7.95;;;3.60;;
27517;SDS011;14962;52.482;13.142;2024-02-26T03:19:26;5.93;;;3.67;;
27517;SDS011;14962;52.482;13.142;2024-02-26T03:21:52;6.35;;;3.78;;
27517;SDS011;14962;52.482;13.142;2024-02-26T03:24:18;5.28;;;2.92;;
27517;SDS011;14962;52.482;13.142;2024-02-26T03:26:44;5.63;;;3.42;;
27517;SDS011;14962;52.482;13.142;2024-02-26T03:29:10;6.93;;;3.03;;
27517;SDS011;14962;52.482;13.142;2024-02-26T03:31:36;4.53;;;2.85;;
27517;SDS011;14962;52.482;13.142;2024-02-26T03:34:02;4.10;;;2.55;;
27517;SDS011;14962;52.482;13.142;2024-02-26T03:36:28;6.13;;;2.65;;
27517;SDS011;14962;52.482;13.142;2024-02-26T03:38:54;4.35;;;2.35;;
27517;SDS011;14962;52.482;13.142;2024-02-26T03:41:20;4.57;;;3.30;;
27517;SDS011;14962;52.482;13.142;2024-02-26T03:43:46;8.90;;;3.10;;
27517;SDS011;14962;52.482;13.142;2024-02-26T03:46:12;6.70;;;3.60;;
27517;SDS011;14962;52.482;13.142;2024-02-26T03:48:39;5.72;;;2.90;;
27517;SDS011;14962;52.482;13.142;2024-02-26T03:51:05;5.63;;;2.80;;
27517;SDS011;14962;52.482;13.142;2024-02-26T03:53:31;5.35;;;3.22;;
27517;SDS011;14962;52.482;13.142;2024-02-26T03:55:57;3.80;;;2.75;;
27517;SDS011;14962;52.482;13.142;2024-02-26T03:58:23;5.20;;;3.35;;
27517;SDS011;14962;52.482;13.142;2024-02-26T04:00:49;6.93;;;3.30;;
27517;SDS011;14962;52.482;13.142;2024-02-26T04:03:15;7.68;;;3.53;;
27517;SDS011;14962;52.482;13.142;2024-02-26T04:05:40;5.75;;;3.22;;
27517;SDS011;14962;52.482;13.142;2024-02-26T04:08:06;6.25;;;3.75;;
27517;SDS011;14962;52.482;13.142;2024-02-26T04:10:33;7.18;;;3.25;;
27517;SDS011;14962;52.482;13.142;2024-02-26T04:13:06;7.25;;;3.67;;
27517;SDS011;14962;52.482;13.142;2024-02-26T04:15:32;4.88;;;3.17;;
27517;SDS011;14962;52.482;13.142;2024-02-26T04:17:58;10.75;;;3.47;;
27517;SDS011;14962;52.482;13.142;2024-02-26T04:20:24;8.82;;;3.80;;
27517;SDS011;14962;52.482;13.142;2024-02-26T04:22:50;9.20;;;3.17;;
27517;SDS011;14962;52.482;13.142;2024-02-26T04:25:16;7.20;;;3.30;;
27517;SDS011;14962;52.482;13.142;2024-02-26T04:27:42;5.47;;;3.30;;
27517;SDS011;14962;52.482;13.142;2024-02-26T04:30:08;6.03;;;4.03;;
27517;SDS011;14962;52.482;13.142;2024-02-26T04:32:34;6.45;;;4.00;;
27517;SDS011;14962;52.482;13.142;2024-02-26T04:35:01;7.18;;;3.55;;
27517;SDS011;14962;52.482;13.142;2024-02-26T04:37:27;6.85;;;3.67;;
27517;SDS011;14962;52.482;13.142;2024-02-26T04:39:59;6.28;;;3.75;;
27517;SDS011;14962;52.482;13.142;2024-02-26T04:42:26;8.45;;;3.97;;
27517;SDS011;14962;52.482;13.142;2024-02-26T04:44:52;6.38;;;3.97;;
27517;SDS011;14962;52.482;13.142;2024-02-26T04:47:18;6.15;;;3.03;;
27517;SDS011;14962;52.482;13.142;2024-02-26T04:49:44;6.50;;;3.75;;
27517;SDS011;14962;52.482;13.142;2024-02-26T04:52:10;4.40;;;2.95;;
27517;SDS011;14962;52.482;13.142;2024-02-26T04:54:36;4.28;;;3.03;;
27517;SDS011;14962;52.482;13.142;2024-02-26T04:57:01;6.05;;;3.13;;
27517;SDS011;14962;52.482;13.142;2024-02-26T04:59:27;8.15;;;3.47;;
27517;SDS011;14962;52.482;13.142;2024-02-26T05:01:53;5.40;;;2.97;;
27517;SDS011;14962;52.482;13.142;2024-02-26T05:04:19;4.72;;;3.42;;
27517;SDS011;14962;52.482;13.142;2024-02-26T05:06:45;6.68;;;4.28;;
27517;SDS011;14962;52.482;13.142;2024-02-26T05:09:11;8.63;;;4.13;;
27517;SDS011;14962;52.482;13.142;2024-02-26T05:11:38;7.55;;;3.97;;
27517;SDS011;14962;52.482;13.142;2024-02-26T05:14:04;7.80;;;4.07;;
27517;SDS011;14962;52.482;13.142;2024-02-26T05:16:30;7.40;;;3.92;;
27517;SDS011;14962;52.482;13.142;2024-02-26T05:18:56;7.10;;;3.65;;
27517;SDS011;14962;52.482;13.142;2024-02-26T05:21:22;11.50;;;4.47;;
27517;SDS011;14962;52.482;13.142;2024-02-26T05:23:48;7.90;;;4.07;;
27517;SDS011;14962;52.482;13.142;2024-02-26T05:26:20;10.15;;;4.43;;
27517;SDS011;14962;52.482;13.142;2024-02-26T05:28:46;6.82;;;3.28;;
27517;SDS011;14962;52.482;13.142;2024-02-26T05:31:13;5.47;;;3.80;;
27517;SDS011;14962;52.482;13.142;2024-02-26T05:33:39;6.00;;;3.92;;
27517;SDS011;14962;52.482;13.142;2024-02-26T05:36:05;7.50;;;4.75;;
27517;SDS011;14962;52.482;13.142;2024-02-26T05:38:31;7.78;;;4.03;;
27517;SDS011;14962;52.482;13.142;2024-02-26T05:40:57;7.57;;;3.83;;
27517;SDS011;14962;52.482;13.142;2024-02-26T05:43:24;6.05;;;3.92;;
27517;SDS011;14962;52.482;13.142;2024-02-26T05:45:50;6.70;;;4.13;;
27517;SDS011;14962;52.482;13.142;2024-02-26T05:48:16;6.80;;;4.32;;
27517;SDS011;14962;52.482;13.142;2024-02-26T05:50:42;8.07;;;4.07;;
27517;SDS011;14962;52.482;13.142;2024-02-26T05:53:08;7.82;;;4.20;;
27517;SDS011;14962;52.482;13.142;2024-02-26T05:55:34;8.15;;;3.92;;
27517;SDS011;14962;52.482;13.142;2024-02-26T05:58:00;9.23;;;4.25;;
27517;SDS011;14962;52.482;13.142;2024-02-26T06:00:26;7.45;;;4.38;;
27517;SDS011;14962;52.482;13.142;2024-02-26T06:02:52;12.75;;;4.72;;
27517;SDS011;14962;52.482;13.142;2024-02-26T06:05:18;11.75;;;5.05;;
27517;SDS011;14962;52.482;13.142;2024-02-26T06:07:44;12.43;;;4.57;;
27517;SDS011;14962;52.482;13.142;2024-02-26T06:10:10;8.25;;;4.90;;
27517;SDS011;14962;52.482;13.142;2024-02-26T06:12:38;8.88;;;4.55;;
27517;SDS011;14962;52.482;13.142;2024-02-26T06:15:05;9.35;;;5.05;;
27517;SDS011;14962;52.482;13.142;2024-02-26T06:17:31;8.80;;;4.65;;
27517;SDS011;14962;52.482;13.142;2024-02-26T06:19:57;7.70;;;4.18;;
27517;SDS011;14962;52.482;13.142;2024-02-26T06:22:24;8.43;;;4.47;;
27517;SDS011;14962;52.482;13.142;2024-02-26T06:24:50;13.50;;;4.95;;
27517;SDS011;14962;52.482;13.142;2024-02-26T06:27:16;13.00;;;5.20;;
27517;SDS011;14962;52.482;13.142;2024-02-26T06:29:42;12.95;;;5.53;;
27517;SDS011;14962;52.482;13.142;2024-02-26T06:32:08;8.25;;;5.05;;
27517;SDS011;14962;52.482;13.142;2024-02-26T06:34:34;9.38;;;4.88;;
27517;SDS011;14962;52.482;13.142;2024-02-26T06:37:00;11.70;;;5.57;;
27517;SDS011;14962;52.482;13.142;2024-02-26T06:39:26;8.60;;;4.75;;
27517;SDS011;14962;52.482;13.142;2024-02-26T06:41:52;8.50;;;5.43;;
27517;SDS011;14962;52.482;13.142;2024-02-26T06:44:25;9.82;;;5.07;;
27517;SDS011;14962;52.482;13.142;2024-02-26T06:46:51;9.48;;;5.45;;
27517;SDS011;14962;52.482;13.142;2024-02-26T06:49:17;10.32;;;5.97;;
27517;SDS011;14962;52.482;13.142;2024-02-26T06:51:43;9.23;;;5.25;;
27517;SDS011;14962;52.482;13.142;2024-02-26T06:54:09;8.70;;;5.63;;
27517;SDS011;14962;52.482;13.142;2024-02-26T06:56:35;11.80;;;5.88;;
27517;SDS011;14962;52.482;13.142;2024-02-26T06:59:01;8.15;;;5.32;;
27517;SDS011;14962;52.482;13.142;2024-02-26T07:01:27;12.90;;;6.35;;
27517;SDS011;14962;52.482;13.142;2024-02-26T07:03:53;14.35;;;6.55;;
27517;SDS011;14962;52.482;13.142;2024-02-26T07:06:19;11.57;;;6.22;;
27517;SDS011;14962;52.482;13.142;2024-02-26T07:08:45;11.38;;;6.68;;
27517;SDS011;14962;52.482;13.142;2024-02-26T07:11:11;14.45;;;6.57;;
27517;SDS011;14962;52.482;13.142;2024-02-26T07:13:37;14.93;;;6.68;;
27517;SDS011;14962;52.482;13.142;2024-02-26T07:16:03;15.63;;;6.55;;
27517;SDS011;14962;52.482;13.142;2024-02-26T07:18:29;9.00;;;6.28;;
27517;SDS011;14962;52.482;13.142;2024-02-26T07:20:55;12.82;;;7.38;;
27517;SDS011;14962;52.482;13.142;2024-02-26T07:23:21;14.13;;;6.95;;
27517;SDS011;14962;52.482;13.142;2024-02-26T07:25:47;16.33;;;7.10;;
27517;SDS011;14962;52.482;13.142;2024-02-26T07:28:15;14.45;;;6.60;;
27517;SDS011;14962;52.482;13.142;2024-02-26T07:30:41;9.52;;;5.50;;
27517;SDS011;14962;52.482;13.142;2024-02-26T07:33:07;9.85;;;5.72;;
27517;SDS011;14962;52.482;13.142;2024-02-26T07:35:33;12.20;;;6.97;;
27517;SDS011;14962;52.482;13.142;2024-02-26T07:38:01;10.05;;;6.03;;
27517;SDS011;14962;52.482;13.142;2024-02-26T07:40:27;12.77;;;5.57;;
27517;SDS011;14962;52.482;13.142;2024-02-26T07:42:53;12.77;;;5.70;;
27517;SDS011;14962;52.482;13.142;2024-02-26T07:45:19;9.98;;;5.53;;
27517;SDS011;14962;52.482;13.142;2024-02-26T07:47:46;11.63;;;5.55;;
27517;SDS011;14962;52.482;13.142;2024-02-26T07:50:12;11.02;;;5.85;;
27517;SDS011;14962;52.482;13.142;2024-02-26T07:52:38;11.93;;;6.22;;
27517;SDS011;14962;52.482;13.142;2024-02-26T07:55:05;12.00;;;5.47;;
27517;SDS011;14962;52.482;13.142;2024-02-26T07:57:32;12.32;;;5.97;;
27517;SDS011;14962;52.482;13.142;2024-02-26T07:59:58;11.15;;;5.45;;
27517;SDS011;14962;52.482;13.142;2024-02-26T08:02:24;11.23;;;5.43;;
27517;SDS011;14962;52.482;13.142;2024-02-26T08:04:50;11.77;;;5.85;;
27517;SDS011;14962;52.482;13.142;2024-02-26T08:07:16;13.88;;;6.50;;
27517;SDS011;14962;52.482;13.142;2024-02-26T08:09:42;10.05;;;6.07;;
27517;SDS011;14962;52.482;13.142;2024-02-26T08:12:08;11.27;;;6.18;;
27517;SDS011;14962;52.482;13.142;2024-02-26T08:14:34;13.38;;;6.40;;
27517;SDS011;14962;52.482;13.142;2024-02-26T08:17:00;12.90;;;7.18;;
27517;SDS011;14962;52.482;13.142;2024-02-26T08:19:26;17.95;;;7.63;;
27517;SDS011;14962;52.482;13.142;2024-02-26T08:21:53;17.02;;;8.45;;
27517;SDS011;14962;52.482;13.142;2024-02-26T08:24:19;12.77;;;7.72;;
27517;SDS011;14962;52.482;13.142;2024-02-26T08:26:45;13.52;;;7.60;;
27517;SDS011;14962;52.482;13.142;2024-02-26T08:29:11;10.88;;;7.65;;
27517;SDS011;14962;52.482;13.142;2024-02-26T08:31:37;16.85;;;8.48;;
27517;SDS011;14962;52.482;13.142;2024-02-26T08:34:03;13.93;;;7.93;;
27517;SDS011;14962;52.482;13.142;2024-02-26T08:36:33;17.20;;;9.15;;
27517;SDS011;14962;52.482;13.142;2024-02-26T08:38:59;16.08;;;8.25;;
27517;SDS011;14962;52.482;13.142;2024-02-26T08:41:26;13.35;;;8.48;;
27517;SDS011;14962;52.482;13.142;2024-02-26T08:43:52;16.45;;;9.88;;
27517;SDS011;14962;52.482;13.142;2024-02-26T08:46:18;19.30;;;9.10;;
27517;SDS011;14962;52.482;13.142;2024-02-26T08:48:44;15.00;;;8.48;;
27517;SDS011;14962;52.482;13.142;2024-02-26T08:51:10;20.23;;;11.05;;
27517;SDS011;14962;52.482;13.142;2024-02-26T08:53:36;16.40;;;9.57;;
27517;SDS011;14962;52.482;13.142;2024-02-26T08:56:02;22.10;;;11.20;;
27517;SDS011;14962;52.482;13.142;2024-02-26T08:58:28;19.42;;;10.25;;
27517;SDS011;14962;52.482;13.142;2024-02-26T09:00:54;16.38;;;10.70;;
27517;SDS011;14962;52.482;13.142;2024-02-26T09:03:20;23.85;;;11.70;;
27517;SDS011;14962;52.482;13.142;2024-02-26T09:05:46;19.95;;;11.57;;
27517;SDS011;14962;52.482;13.142;2024-02-26T09:08:12;20.63;;;11.02;;
27517;SDS011;14962;52.482;13.142;2024-02-26T09:10:39;23.30;;;10.68;;
27517;SDS011;14962;52.482;13.142;2024-02-26T09:13:05;19.38;;;11.38;;
27517;SDS011;14962;52.482;13.142;2024-02-26T09:15:31;21.13;;;11.23;;
27517;SDS011;14962;52.482;13.142;2024-02-26T09:17:57;17.67;;;11.13;;
27517;SDS011;14962;52.482;13.142;2024-02-26T09:20:23;18.42;;;9.88;;
27517;SDS011;14962;52.482;13.142;2024-02-26T09:22:49;18.00;;;10.10;;
27517;SDS011;14962;52.482;13.142;2024-02-26T09:25:16;16.45;;;9.85;;
27517;SDS011;14962;52.482;13.142;2024-02-26T09:27:42;16.80;;;9.75;;
27517;SDS011;14962;52.482;13.142;2024-02-26T09:30:09;16.52;;;8.93;;
27517;SDS011;14962;52.482;13.142;2024-02-26T09:32:35;17.95;;;9.00;;
27517;SDS011;14962;52.482;13.142;2024-02-26T09:35:01;17.38;;;9.93;;
27517;SDS011;14962;52.482;13.142;2024-02-26T09:37:27;18.67;;;9.65;;
27517;SDS011;14962;52.482;13.142;2024-02-26T09:39:53;15.30;;;8.90;;
27517;SDS011;14962;52.482;13.142;2024-02-26T09:42:19;15.32;;;9.13;;
27517;SDS011;14962;52.482;13.142;2024-02-26T09:44:45;15.80;;;8.68;;
27517;SDS011;14962;52.482;13.142;2024-02-26T09:47:11;16.08;;;8.60;;
27517;SDS011;14962;52.482;13.142;2024-02-26T09:49:40;16.45;;;8.80;;
27517;SDS011;14962;52.482;13.142;2024-02-26T09:52:08;16.40;;;8.57;;
27517;SDS011;14962;52.482;13.142;2024-02-26T09:54:34;12.32;;;7.80;;
27517;SDS011;14962;52.482;13.142;2024-02-26T09:57:02;14.73;;;7.78;;
27517;SDS011;14962;52.482;13.142;2024-02-26T09:59:29;16.55;;;8.70;;
27517;SDS011;14962;52.482;13.142;2024-02-26T10:01:55;17.98;;;8.30;;
27517;SDS011;14962;52.482;13.142;2024-02-26T10:04:22;14.27;;;8.32;;
27517;SDS011;14962;52.482;13.142;2024-02-26T10:06:48;17.30;;;9.05;;
27517;SDS011;14962;52.482;13.142;2024-02-26T10:09:14;19.05;;;8.68;;
27517;SDS011;14962;52.482;13.142;2024-02-26T10:11:41;15.48;;;8.45;;
27517;SDS011;14962;52.482;13.142;2024-02-26T10:14:08;13.32;;;8.43;;
27517;SDS011;14962;52.482;13.142;2024-02-26T10:16:35;16.17;;;8.27;;
27517;SDS011;14962;52.482;13.142;2024-02-26T10:19:01;15.52;;;7.88;;
27517;SDS011;14962;52.482;13.142;2024-02-26T10:21:27;13.35;;;7.88;;
27517;SDS011;14962;52.482;13.142;2024-02-26T10:23:53;15.85;;;7.68;;
27517;SDS011;14962;52.482;13.142;2024-02-26T10:26:19;16.58;;;7.85;;
27517;SDS011;14962;52.482;13.142;2024-02-26T10:28:45;16.02;;;7.95;;
27517;SDS011;14962;52.482;13.142;2024-02-26T10:31:13;12.02;;;7.38;;
27517;SDS011;14962;52.482;13.142;2024-02-26T10:33:40;16.13;;;9.10;;
27517;SDS011;14962;52.482;13.142;2024-02-26T10:36:07;15.80;;;9.50;;
27517;SDS011;14962;52.482;13.142;2024-02-26T10:38:33;18.55;;;9.95;;
27517;SDS011;14962;52.482;13.142;2024-02-26T10:41:01;16.23;;;9.18;;
27517;SDS011;14962;52.482;13.142;2024-02-26T10:43:27;17.70;;;8.98;;
27517;SDS011;14962;52.482;13.142;2024-02-26T10:45:56;12.10;;;7.78;;
27517;SDS011;14962;52.482;13.142;2024-02-26T10:48:22;16.17;;;8.25;;
27517;SDS011;14962;52.482;13.142;2024-02-26T10:50:48;19.48;;;8.48;;
27517;SDS011;14962;52.482;13.142;2024-02-26T10:53:16;14.05;;;8.00;;
27517;SDS011;14962;52.482;13.142;2024-02-26T10:55:43;14.55;;;7.63;;
27517;SDS011;14962;52.482;13.142;2024-02-26T10:58:11;10.07;;;6.88;;
27517;SDS011;14962;52.482;13.142;2024-02-26T11:00:38;15.65;;;6.78;;
27517;SDS011;14962;52.482;13.142;2024-02-26T11:03:04;10.05;;;6.38;;
27517;SDS011;14962;52.482;13.142;2024-02-26T11:05:30;11.75;;;7.20;;
27517;SDS011;14962;52.482;13.142;2024-02-26T11:07:58;12.27;;;8.07;;
27517;SDS011;14962;52.482;13.142;2024-02-26T11:10:25;10.52;;;6.45;;
27517;SDS011;14962;52.482;13.142;2024-02-26T11:12:52;10.63;;;7.32;;
27517;SDS011;14962;52.482;13.142;2024-02-26T11:15:18;13.88;;;7.28;;
27517;SDS011;14962;52.482;13.142;2024-02-26T11:17:45;9.93;;;6.57;;
27517;SDS011;14962;52.482;13.142;2024-02-26T11:20:11;10.93;;;6.15;;
27517;SDS011;14962;52.482;13.142;2024-02-26T11:22:39;10.45;;;6.63;;
27517;SDS011;14962;52.482;13.142;2024-02-26T11:25:05;15.02;;;6.38;;
27517;SDS011;14962;52.482;13.142;2024-02-26T11:27:33;12.63;;;6.18;;
27517;SDS011;14962;52.482;13.142;2024-02-26T11:30:01;11.05;;;6.47;;
27517;SDS011;14962;52.482;13.142;2024-02-26T11:32:30;10.20;;;6.03;;
27517;SDS011;14962;52.482;13.142;2024-02-26T11:34:56;11.50;;;6.22;;
27517;SDS011;14962;52.482;13.142;2024-02-26T11:37:22;11.10;;;5.80;;
27517;SDS011;14962;52.482;13.142;2024-02-26T11:39:49;12.88;;;6.47;;
27517;SDS011;14962;52.482;13.142;2024-02-26T11:42:17;12.27;;;6.28;;
27517;SDS011;14962;52.482;13.142;2024-02-26T11:44:43;10.70;;;5.93;;
27517;SDS011;14962;52.482;13.142;2024-02-26T11:47:19;10.18;;;5.38;;
27517;SDS011;14962;52.482;13.142;2024-02-26T11:49:45;14.18;;;6.25;;
27517;SDS011;14962;52.482;13.142;2024-02-26T11:52:12;11.27;;;6.97;;
27517;SDS011;14962;52.482;13.142;2024-02-26T11:57:19;11.55;;;5.80;;
27517;SDS011;14962;52.482;13.142;2024-02-26T11:59:46;9.98;;;4.95;;
27517;SDS011;14962;52.482;13.142;2024-02-26T12:02:37;12.20;;;5.57;;
27517;SDS011;14962;52.482;13.142;2024-02-26T12:04:59;8.30;;;4.93;;
27517;SDS011;14962;52.482;13.142;2024-02-26T12:07:25;8.02;;;4.93;;
27517;SDS011;14962;52.482;13.142;2024-02-26T12:09:51;9.10;;;4.68;;
27517;SDS011;14962;52.482;13.142;2024-02-26T12:12:17;6.35;;;4.25;;
27517;SDS011;14962;52.482;13.142;2024-02-26T12:14:51;9.35;;;4.78;;
27517;SDS011;14962;52.482;13.142;2024-02-26T12:17:21;8.00;;;4.00;;
27517;SDS011;14962;52.482;13.142;2024-02-26T12:19:47;12.82;;;5.28;;
27517;SDS011;14962;52.482;13.142;2024-02-26T12:22:13;9.45;;;4.20;;
27517;SDS011;14962;52.482;13.142;2024-02-26T12:24:40;8.00;;;4.32;;
27517;SDS011;14962;52.482;13.142;2024-02-26T12:27:06;6.57;;;4.13;;
27517;SDS011;14962;52.482;13.142;2024-02-26T12:29:32;8.85;;;4.28;;
27517;SDS011;14962;52.482;13.142;2024-02-26T12:31:58;7.57;;;3.78;;
27517;SDS011;14962;52.482;13.142;2024-02-26T12:34:24;8.40;;;4.18;;
27517;SDS011;14962;52.482;13.142;2024-02-26T12:36:51;6.28;;;3.85;;
27517;SDS011;14962;52.482;13.142;2024-02-26T12:39:18;7.00;;;4.05;;
27517;SDS011;14962;52.482;13.142;2024-02-26T12:41:45;7.90;;;4.18;;
27517;SDS011;14962;52.482;13.142;2024-02-26T12:44:15;8.15;;;3.72;;
27517;SDS011;14962;52.482;13.142;2024-02-26T12:46:41;8.23;;;3.80;;
27517;SDS011;14962;52.482;13.142;2024-02-26T12:49:07;5.53;;;3.35;;
27517;SDS011;14962;52.482;13.142;2024-02-26T12:51:33;7.30;;;3.95;;
27517;SDS011;14962;52.482;13.142;2024-02-26T12:54:00;6.25;;;3.55;;
27517;SDS011;14962;52.482;13.142;2024-02-26T12:56:26;6.78;;;3.95;;
27517;SDS011;14962;52.482;13.142;2024-02-26T12:58:53;7.78;;;4.20;;
27517;SDS011;14962;52.482;13.142;2024-02-26T13:01:22;7.05;;;3.83;;
27517;SDS011;14962;52.482;13.142;2024-02-26T13:03:49;8.25;;;4.63;;
27517;SDS011;14962;52.482;13.142;2024-02-26T13:06:15;6.82;;;4.00;;
27517;SDS011;14962;52.482;13.142;2024-02-26T13:08:41;7.30;;;4.25;;
27517;SDS011;14962;52.482;13.142;2024-02-26T13:11:07;7.90;;;4.22;;
27517;SDS011;14962;52.482;13.142;2024-02-26T13:13:33;8.43;;;3.97;;
27517;SDS011;14962;52.482;13.142;2024-02-26T13:16:01;10.73;;;5.07;;
27517;SDS011;14962;52.482;13.142;2024-02-26T13:18:28;9.50;;;4.30;;
27517;SDS011;14962;52.482;13.142;2024-02-26T13:21:05;5.93;;;3.67;;
27517;SDS011;14962;52.482;13.142;2024-02-26T13:23:31;8.20;;;3.72;;
27517;SDS011;14962;52.482;13.142;2024-02-26T13:25:57;6.40;;;3.47;;
27517;SDS011;14962;52.482;13.142;2024-02-26T13:28:23;6.28;;;3.30;;
27517;SDS011;14962;52.482;13.142;2024-02-26T13:30:53;7.05;;;3.63;;
27517;SDS011;14962;52.482;13.142;2024-02-26T13:33:21;5.95;;;3.10;;
27517;SDS011;14962;52.482;13.142;2024-02-26T13:35:47;3.75;;;2.60;;
27517;SDS011;14962;52.482;13.142;2024-02-26T13:38:13;4.38;;;2.60;;
27517;SDS011;14962;52.482;13.142;2024-02-26T13:40:39;5.25;;;2.47;;
27517;SDS011;14962;52.482;13.142;2024-02-26T13:43:06;6.43;;;2.30;;
27517;SDS011;14962;52.482;13.142;2024-02-26T13:45:35;3.97;;;1.92;;
27517;SDS011;14962;52.482;13.142;2024-02-26T13:48:02;4.05;;;2.50;;
27517;SDS011;14962;52.482;13.142;2024-02-26T13:50:29;7.03;;;2.83;;
27517;SDS011;14962;52.482;13.142;2024-02-26T13:52:55;5.60;;;2.53;;
27517;SDS011;14962;52.482;13.142;2024-02-26T13:55:22;4.53;;;2.28;;
27517;SDS011;14962;52.482;13.142;2024-02-26T13:57:50;4.15;;;2.22;;
27517;SDS011;14962;52.482;13.142;2024-02-26T14:00:18;3.72;;;2.05;;
27517;SDS011;14962;52.482;13.142;2024-02-26T14:02:44;6.78;;;2.10;;
27517;SDS011;14962;52.482;13.142;2024-02-26T14:05:10;2.20;;;1.40;;
27517;SDS011;14962;52.482;13.142;2024-02-26T14:07:36;2.92;;;1.48;;
27517;SDS011;14962;52.482;13.142;2024-02-26T14:10:02;2.63;;;1.42;;
27517;SDS011;14962;52.482;13.142;2024-02-26T14:12:28;4.93;;;1.60;;
27517;SDS011;14962;52.482;13.142;2024-02-26T14:14:54;3.38;;;1.40;;
27517;SDS011;14962;52.482;13.142;2024-02-26T14:17:21;2.90;;;1.20;;
27517;SDS011;14962;52.482;13.142;2024-02-26T14:19:47;7.07;;;1.23;;
27517;SDS011;14962;52.482;13.142;2024-02-26T14:22:14;2.80;;;1.33;;
27517;SDS011;14962;52.482;13.142;2024-02-26T14:24:41;3.00;;;1.60;;
27517;SDS011;14962;52.482;13.142;2024-02-26T14:27:11;3.45;;;1.38;;